AirNav   Duncan Aviation - Near you to keep you flying
 
 503 users online  

SC58 Ja Field Airport
Pageland, South Carolina, USA


FAA INFORMATION EFFECTIVE 03 NOVEMBER 2022

Location

FAA Identifier: SC58
Lat/Long: 34-44-39.5000N 080-23-20.0000W
34-44.658333N 080-23.333333W
34.7443056,-80.3888889
(estimated)
Elevation: 570 ft. / 174 m (estimated)
From city: 2 miles S of PAGELAND, SC
Time zone: UTC -5 (UTC -4 during Daylight Saving Time)
Zip code: 29728

Airport Operations

Airport use: Private use. Permission required prior to landing
Activation date: 10/2020
Control tower: no
ARTCC: ATLANTA CENTER
FSS: ANDERSON FLIGHT SERVICE STATION
Attendance: 
Segmented circle: no

Airport Communications

CTAF: 122.9

Nearby radio navigation aids

VOR radial/distance  VOR name  Freq  Var
CTFr318/8.0CHESTERFIELD VOR/DME114.5503W
CLTr139/38.5CHARLOTTE VOR/DME115.0005W

 
NDB name  Hdg/Dist  Freq  Var  ID
LANCASTER094/23.240007WLKR .-.. -.- .-.
HARTSVILLE334/24.234107WHVS .... ...- ...
DARLINGTON312/30.724506WUDG ..- -.. --.
BENNETTSVILLE291/33.223008WBES -... . ...

Airport Services

Runway Information

Runway 7/25

Dimensions: 2200 x 80 ft. / 671 x 24 m
Surface: turf
RUNWAY 7  RUNWAY 25
Latitude: 34-44.583333N34-44.733333N
Longitude: 080-23.533333W080-23.133333W
Elevation: 550.0 ft.570.0 ft.
Traffic pattern: leftright

Airport Ownership and Management from official FAA records

Ownership: Privately-owned
Owner: JORDAN SEIDHOM
1425 S PEARL ST
PAGELAND, SC 29728
Phone 843-672-8230
Manager: JORDAN SEIDHOM
1425 S PEARL ST
PAGELAND, SC 29728
Phone 843-672-8230

Airport Operational Statistics

Aircraft based on the field: 1
Single engine airplanes: 1
    

Instrument Procedures

There are no published instrument procedures at SC58.

Some nearby airports with instrument procedures:

KPYG - Pageland Airport (2 nm E)
N52 - JAARS-Townsend Airport (19 nm W)
KEQY - Charlotte-Monroe Executive Airport (20 nm NW)
KCQW - Cheraw Municipal Airport/Lynch Bellinger Field (21 nm E)
KAFP - Anson County Airport - Jeff Cloud Field (23 nm NE)
 
Loc | Ops | Rwys | IFR | FBO | Links
Com | Nav | Svcs | Stats | Notes
Aerial photo
No photo
 
Airport distance calculator
Flying to Ja Field Airport? Find the distance to fly.

From to SC58

Sunrise and sunset
Times for 27-Nov-2022
 Local
(UTC-5)
 Zulu
(UTC)
Morning civil twilight06:4111:41
Sunrise07:0812:08
Sunset17:1022:10
Evening civil twilight17:3822:38

Current date and time
Zulu (UTC)  27-Nov-2022 11:10:45
Local (UTC-5)  27-Nov-2022 06:10:45
 
METAR
KEQY 
20nm NW 
271053Z AUTO VRB03KT 5SM -RA BR OVC002 11/10 A2988 RMK AO2 SLP128 P0003 T01060100
KCQW 
21nm E 
271055Z AUTO 00000KT 4SM -RA FEW004 OVC009 10/10 A2991 RMK AO2 P0017
KAFP 
23nm NE 
271055Z AUTO 10003KT 5SM -RA SCT003 OVC010 09/09 A2991 RMK AO2 P0014 T00920086
KLKR 
23nm W 
271055Z AUTO 00000KT 2SM BR OVC003 12/12 A2988 RMK AO2 P0002
KHVS 
24nm SE 
271055Z AUTO 00000KT 1 3/4SM -DZ OVC004 11/11 A2991 RMK AO2 P0011
KCDN 
29nm S 
271055Z AUTO 00000KT 1SM -RA OVC003 12/12 A2990 RMK AO2
KUDG 
31nm SE 
271056Z AUTO 00000KT 6SM -RA BR BKN005 OVC013 11/11 A2992 RMK AO2 CIG 004V008 SLP133 T01110111 PNO $
KRCZ 
32nm E 
271055Z AUTO 24004KT 1 1/4SM RA OVC005 12/12 A2992 RMK AO2 P0027 T01180115
KBBP 
33nm E 
271055Z AUTO 00000KT 3SM -RA BKN003 BKN008 OVC014 12/12 A2992 RMK AO2 P0004
KUZA 
36nm NW 
271054Z AUTO 00000KT 3SM RA BR OVC003 10/09 A2987 RMK AO2 SLP115 T01000094 PNO $
TAF
KCLT 
40nm NW 
270526Z 2706/2812 16005KT P6SM VCSH SCT045 OVC200 FM270800 12003KT 6SM -SHRA BR SCT011 OVC020 TEMPO 2708/2710 2SM SHRA BKN007 OVC012 FM271000 12004KT 5SM -SHRA BR OVC007 WS020/18035KT FM271300 16008G16KT 2SM SHRA BR OVC003 WS020/19040KT FM271800 21012G25KT P6SM SCT110 FM280500 24010KT P6SM SCT200
KFLO 
47nm SE 
270733Z 2708/2806 14005KT 6SM BR VCSH BKN015 OVC025 WS020/16040KT FM271000 17012KT 3SM SHRA BR BKN008 OVC015 WS020/19040KT FM271600 22015G25KT 5SM -RA BR VCTS BKN015CB WS020/21050KT FM272000 23013G20KT P6SM BKN250 WS020/24040KT
KSSC 
47nm S 
270800Z 2708/2814 VRB06KT 3200 -SHRA FEW003 BKN005 OVC015 QNH2993INS BECMG 2711/2712 17009KT 4800 -SHRA SCT003 BKN008 OVC015 QNH2972INS TEMPO 2716/2719 23025G32KT 3200 TSRA OVC012CB BECMG 2720/2721 23015KT 9999 NSW SCT050 QNH2969INS BECMG 2801/2802 24009KT 9999 SCT030 QNH2979INS TX22/2719Z TN10/2709Z LAST NO AMDS AFT 2708 NEXT 2716
NOTAMs
Click for the latest NOTAMs
NOTAMs are issued by the DoD/FAA and will open in a separate window not controlled by AirNav.

 

 
 

Would you like to see your business listed on this page?

 If your business provides an interesting product or service to pilots, flight crews, aircraft, or users of the Ja Field Airport, you should consider listing it here.  To start the listing process, click on the button below
 
Add a business
 

Other Pages about Ja Field Airport

Update a link
 
Copyright © AirNav, LLC. All rights reserved. Privacy Policy  Contact